Time;durP1;ratioP1;P1;durP2;ratioP2;P2;SDS_P1;SDS_P2;PMS_P1;PMS_P2;Temp;Humidity;BMP_temperature;BMP_pressure;BME280_temperature;BME280_humidity;BME280_pressure;Samples;Min_cycle;Max_cycle;Signal;HPM_P1;HPM_P2
2023/08/02 00:02:14;;;;;;;2.00;1.77;;;16.90;99.90;;;-141.84;70.91;20777.28;5062410;28;20321;-60
2023/08/02 00:04:43;;;;;;;2.72;1.63;;;16.90;99.90;;;-141.84;70.34;20815.91;5054768;28;20252;-61
2023/08/02 00:07:11;;;;;;;1.50;1.25;;;16.90;99.90;;;-141.84;69.68;20842.34;5062357;28;20213;-58
2023/08/02 00:09:39;;;;;;;2.00;1.50;;;17.00;99.90;;;-141.84;69.31;20885.03;5062704;28;20257;-60
2023/08/02 00:12:08;;;;;;;1.70;1.60;;;17.00;99.90;;;-141.84;70.06;20817.94;5045210;28;20320;-59
2023/08/02 00:14:36;;;;;;;2.00;1.80;;;17.00;99.90;;;-141.84;69.39;20854.53;5034904;28;20260;-60
2023/08/02 00:17:06;;;;;;;2.08;1.48;;;17.00;99.90;;;-141.84;69.83;20838.28;5056546;28;20278;-59
2023/08/02 00:19:36;;;;;;;1.40;1.30;;;17.00;99.90;;;-141.84;70.38;20824.06;5049531;28;20237;-60
2023/08/02 00:22:04;;;;;;;1.98;1.50;;;17.00;99.90;;;-141.84;69.90;20852.50;5042846;28;20700;-60
2023/08/02 00:24:32;;;;;;;1.90;1.35;;;17.00;99.90;;;-141.84;70.12;20842.34;5034995;28;20592;-59
2023/08/02 00:27:01;;;;;;;2.13;1.45;;;17.00;99.90;;;-141.84;68.99;20874.88;5042362;28;20302;-59
2023/08/02 00:29:29;;;;;;;1.92;1.65;;;17.00;99.90;;;-141.84;69.45;20856.56;5042412;28;20225;-60
2023/08/02 00:31:57;;;;;;;1.65;1.48;;;17.00;99.90;;;-141.84;71.22;20791.53;5042324;28;20311;-59
2023/08/02 00:34:28;;;;;;;3.20;1.40;;;16.90;99.90;;;-141.84;71.05;20799.66;5044099;28;20263;-60
2023/08/02 00:36:56;;;;;;;2.35;1.35;;;17.10;99.90;;;-141.84;69.88;20805.75;5059995;28;20205;-60
2023/08/02 00:39:24;;;;;;;2.38;1.73;;;16.90;99.90;;;-141.84;69.93;20862.69;5065577;28;20306;-59
2023/08/02 00:41:52;;;;;;;3.08;1.40;;;16.90;99.90;;;-141.84;69.99;20858.59;5065726;28;20319;-60
2023/08/02 00:44:20;;;;;;;2.10;1.55;;;16.90;99.90;;;-141.84;69.55;20830.16;5066184;28;20323;-59
2023/08/02 00:46:49;;;;;;;2.10;1.75;;;16.90;99.90;;;-141.84;69.69;20846.41;5057905;28;20410;-60
2023/08/02 00:49:17;;;;;;;3.33;1.88;;;16.90;99.90;;;-141.84;70.04;20815.91;5065187;28;20327;-58
2023/08/02 00:51:47;;;;;;;2.17;1.58;;;16.90;99.90;;;-141.84;69.88;20801.69;5066196;28;20291;-60
2023/08/02 00:54:15;;;;;;;3.90;1.83;;;16.90;99.90;;;-141.84;70.36;20783.41;5065658;28;20320;-60
2023/08/02 00:56:44;;;;;;;1.95;1.75;;;16.90;99.90;;;-141.84;70.14;20801.69;5058756;28;20252;-60
2023/08/02 00:59:12;;;;;;;2.38;1.70;;;16.90;99.90;;;-141.84;69.46;20828.13;5066247;28;20229;-60
2023/08/02 01:01:40;;;;;;;4.18;1.63;;;16.90;99.90;;;-141.84;69.27;20858.59;5065295;28;20698;-60
2023/08/02 01:04:09;;;;;;;3.47;1.95;;;17.00;99.90;;;-141.84;68.87;20842.34;5065465;28;20286;-60
2023/08/02 01:06:44;;;;;;;2.17;1.70;;;17.00;99.90;;;-141.84;69.50;20868.78;5056579;28;20232;-60
2023/08/02 01:09:25;;;;;;;3.72;1.60;;;17.00;99.90;;;-141.84;68.13;20838.28;5055346;28;20250;-60
2023/08/02 01:12:02;;;;;;;3.38;1.52;;;17.10;99.90;;;-141.84;68.41;20846.41;5065350;28;20331;-59
2023/08/02 01:14:34;;;;;;;2.75;1.80;;;17.00;99.90;;;-141.84;68.62;20846.41;5058033;28;20676;-59
2023/08/02 01:17:14;;;;;;;2.47;1.75;;;17.00;99.90;;;-141.84;68.38;20887.06;5065685;28;20228;-60
2023/08/02 01:19:43;;;;;;;3.13;1.75;;;17.00;99.90;;;-141.84;67.52;20887.06;5051645;28;20229;-59
2023/08/02 01:22:13;;;;;;;3.22;1.60;;;17.00;99.90;;;-141.84;68.23;20842.34;5045081;28;20325;-59
2023/08/02 01:24:41;;;;;;;2.20;1.40;;;17.10;99.90;;;-141.84;68.31;20866.75;5038154;28;20723;-60
2023/08/02 01:27:20;;;;;;;2.25;1.60;;;17.10;99.90;;;-141.84;68.52;20836.25;5045028;28;20307;-59
2023/08/02 01:29:51;;;;;;;2.15;1.45;;;17.00;99.90;;;-141.84;68.59;20860.66;5045233;28;20252;-59
2023/08/02 01:32:22;;;;;;;3.45;1.77;;;;;;;-141.84;69.08;20842.34;5045222;28;20229;-59
2023/08/02 01:34:52;;;;;;;4.00;1.75;;;16.90;99.90;;;-141.84;69.21;20858.59;5042167;28;20908;-61
2023/08/02 01:37:22;;;;;;;5.30;1.83;;;16.90;99.90;;;-141.84;69.60;20830.16;5065105;28;20243;-59
2023/08/02 01:39:50;;;;;;;2.78;1.48;;;;;;;-141.84;69.97;20775.25;5065697;28;20800;-61
2023/08/02 01:42:19;;;;;;;2.10;1.45;;;16.80;99.90;;;-141.84;69.34;20842.34;5064657;28;20786;-60
2023/08/02 01:44:47;;;;;;;3.15;1.55;;;16.80;99.90;;;-141.84;69.80;20807.78;5057524;28;20613;-60
2023/08/02 01:47:17;;;;;;;1.95;1.50;;;16.90;99.90;;;-141.84;69.26;20799.66;5065089;28;20228;-59
2023/08/02 01:49:45;;;;;;;2.90;1.73;;;16.80;99.90;;;-141.84;69.06;20832.19;5063563;28;20246;-59
2023/08/02 01:52:13;;;;;;;3.95;1.73;;;16.80;99.90;;;-141.84;69.05;20826.09;5064730;28;20276;-60
2023/08/02 01:54:43;;;;;;;2.33;1.73;;;16.90;99.90;;;-141.84;69.71;20781.38;5057761;28;20224;-60
2023/08/02 01:57:11;;;;;;;2.80;1.60;;;16.80;99.90;;;-141.84;69.76;20820.00;5064935;28;20264;-59
2023/08/02 01:59:39;;;;;;;2.63;1.80;;;16.80;99.90;;;-141.84;69.34;20817.94;5064935;28;20333;-58
2023/08/02 02:02:07;;;;;;;1.88;1.70;;;16.80;99.90;;;-141.84;69.94;20781.38;5064387;28;20239;-61
2023/08/02 02:04:36;;;;;;;2.92;1.50;;;16.80;99.90;;;-141.84;69.57;20809.81;5040336;28;20766;-58
2023/08/02 02:07:04;;;;;;;2.60;1.80;;;16.80;99.90;;;-141.84;67.89;20895.19;5044761;28;20653;-60
2023/08/02 02:09:33;;;;;;;2.78;1.60;;;16.90;99.90;;;-141.84;68.84;20842.34;5058945;28;20660;-61
2023/08/02 02:12:02;;;;;;;2.22;1.52;;;16.90;99.90;;;-141.84;68.99;20797.63;5064441;28;20674;-61
2023/08/02 02:14:30;;;;;;;3.38;1.92;;;16.90;99.90;;;-141.84;69.67;20742.75;5056814;28;20653;-60
2023/08/02 02:16:59;;;;;;;2.92;1.70;;;16.80;99.90;;;-141.84;69.47;20783.41;5063898;28;20309;-60
2023/08/02 02:19:27;;;;;;;2.25;1.38;;;16.80;99.90;;;-141.84;69.41;20815.91;5052622;28;20257;-60
2023/08/02 02:21:55;;;;;;;3.00;1.58;;;16.80;99.90;;;-141.84;70.34;20767.13;5044103;28;20306;-60
2023/08/02 02:24:23;;;;;;;2.72;1.50;;;16.80;99.90;;;-141.84;69.53;20799.66;5044461;28;20236;-60
2023/08/02 02:26:51;;;;;;;3.50;1.50;;;16.70;99.90;;;-141.84;68.22;20852.50;5036090;28;20585;-60
2023/08/02 02:29:21;;;;;;;2.17;1.33;;;16.80;99.90;;;-141.84;69.19;20793.56;5044136;28;20312;-60
2023/08/02 02:31:49;;;;;;;3.75;1.42;;;16.80;99.90;;;-141.84;68.27;20822.03;5044421;28;20341;-60
2023/08/02 02:34:17;;;;;;;2.10;1.55;;;16.90;99.90;;;-141.84;68.46;20828.13;5044759;28;20271;-59
2023/08/02 02:36:46;;;;;;;2.00;1.42;;;16.90;99.90;;;-141.84;68.10;20854.53;5057207;28;20213;-60
2023/08/02 02:39:14;;;;;;;3.40;1.63;;;16.90;99.90;;;-141.84;68.50;20775.25;5063569;28;20271;-60
2023/08/02 02:41:42;;;;;;;2.58;1.45;;;16.80;99.90;;;-141.84;69.31;20799.66;5063762;28;20312;-60
2023/08/02 02:44:11;;;;;;;4.55;1.70;;;16.80;99.90;;;-141.84;68.53;20830.16;5063809;28;20236;-59
2023/08/02 02:46:40;;;;;;;3.05;1.50;;;16.80;99.90;;;-141.84;68.89;20793.56;5055672;28;20289;-60
2023/08/02 02:49:09;;;;;;;3.05;1.75;;;16.80;99.90;;;-141.84;68.21;20824.06;5058680;28;20296;-61
2023/08/02 02:51:37;;;;;;;1.95;1.40;;;16.80;99.90;;;-141.84;67.80;20850.47;5064205;28;20207;-60
2023/08/02 02:54:05;;;;;;;4.38;1.40;;;16.80;99.90;;;-141.84;68.40;20797.63;5063457;28;20311;-60
2023/08/02 02:56:34;;;;;;;1.98;1.30;;;16.80;99.90;;;-141.84;69.00;20777.28;5056484;28;20328;-60
2023/08/02 02:59:02;;;;;;;2.67;1.60;;;16.70;99.90;;;-141.84;69.00;20793.56;5061719;28;20751;-60
2023/08/02 03:01:30;;;;;;;3.40;1.50;;;16.70;99.90;;;-141.84;69.47;20746.81;5043433;28;20308;-60
2023/08/02 03:03:59;;;;;;;5.10;1.60;;;16.60;99.90;;;-141.84;69.28;20750.88;5043390;28;20625;-60
2023/08/02 03:06:28;;;;;;;3.47;1.58;;;16.60;99.90;;;-141.84;70.01;20720.38;5058621;28;20802;-60
2023/08/02 03:08:56;;;;;;;3.92;1.60;;;16.40;99.90;;;-141.84;69.96;20720.38;5058575;28;20315;-60
2023/08/02 03:11:24;;;;;;;1.60;1.48;;;16.40;99.90;;;-141.84;70.99;20685.81;5062740;28;20252;-59
2023/08/02 03:13:52;;;;;;;3.40;1.50;;;16.40;99.90;;;-141.84;70.59;20714.28;5063477;28;20309;-59
2023/08/02 03:16:20;;;;;;;6.13;1.45;;;16.30;99.90;;;-141.84;71.49;20659.38;5062587;28;20201;-59
2023/08/02 03:18:49;;;;;;;2.65;1.60;;;16.20;99.90;;;-141.84;69.81;20748.84;5049509;28;20216;-59
2023/08/02 03:21:19;;;;;;;2.90;1.52;;;16.30;99.90;;;-141.84;70.80;20702.09;5045251;28;20286;-60
2023/08/02 03:23:49;;;;;;;1.65;1.23;;;16.30;99.90;;;-141.84;71.25;20687.84;5059858;28;20228;-59
2023/08/02 03:26:17;;;;;;;2.03;1.42;;;16.30;99.90;;;-141.84;71.76;20667.53;5062128;28;20795;-59
2023/08/02 03:28:45;;;;;;;1.92;1.40;;;16.20;99.90;;;-141.84;72.29;20632.97;5052039;28;20308;-60
2023/08/02 03:31:13;;;;;;;3.47;1.40;;;16.10;99.90;;;-141.84;72.07;20695.97;5062484;28;20281;-59
2023/08/02 03:33:42;;;;;;;4.13;1.55;;;16.10;99.90;;;-141.84;71.47;20653.28;5062612;28;20211;-59
2023/08/02 03:36:10;;;;;;;4.03;1.95;;;16.10;99.90;;;-141.84;71.54;20687.84;5062067;28;20628;-59
2023/08/02 03:38:41;;;;;;;2.78;1.60;;;16.20;99.90;;;-141.84;70.23;20765.09;5054480;28;20236;-59
2023/08/02 03:41:09;;;;;;;2.55;1.40;;;16.30;99.90;;;-141.84;71.65;20706.16;5062336;28;20307;-59
2023/08/02 03:43:37;;;;;;;4.25;1.85;;;16.20;99.90;;;-141.84;70.94;20693.94;5061369;28;20323;-61
2023/08/02 03:46:06;;;;;;;4.43;2.03;;;16.30;99.90;;;-141.84;71.46;20683.78;5062547;28;20675;-59
2023/08/02 03:48:34;;;;;;;2.22;1.52;;;16.20;99.90;;;-141.84;71.11;20712.25;5055203;28;20216;-60
2023/08/02 03:51:02;;;;;;;4.63;1.58;;;16.30;99.90;;;-141.84;70.04;20777.28;5061973;28;20544;-59
2023/08/02 03:53:31;;;;;;;3.50;1.52;;;16.40;99.90;;;-141.84;70.24;20759.00;5061902;28;20255;-59
2023/08/02 03:56:01;;;;;;;3.15;1.60;;;16.40;99.90;;;-141.84;69.89;20773.22;5060222;28;20312;-61
2023/08/02 03:58:30;;;;;;;2.95;1.70;;;16.40;99.90;;;-141.84;71.01;20720.38;5058327;28;20224;-58
2023/08/02 04:00:59;;;;;;;4.47;1.63;;;16.40;99.90;;;-141.84;71.13;20740.69;5062837;28;20299;-60
2023/08/02 04:03:27;;;;;;;2.33;1.52;;;16.50;99.90;;;-141.84;70.78;20740.69;5053965;28;20680;-59
2023/08/02 04:05:55;;;;;;;2.30;1.40;;;16.50;99.90;;;-141.84;70.29;20738.66;5061794;28;20719;-60
2023/08/02 04:08:24;;;;;;;6.03;1.73;;;16.50;99.90;;;-141.84;69.87;20791.53;5061957;28;20277;-60
2023/08/02 04:10:52;;;;;;;5.50;2.20;;;16.60;99.90;;;-141.84;69.65;20793.56;5054366;28;20547;-60
2023/08/02 04:13:22;;;;;;;3.30;1.63;;;16.60;99.90;;;-141.84;69.83;20801.69;5065680;28;20649;-59
2023/08/02 04:15:51;;;;;;;2.90;1.48;;;16.70;99.90;;;-141.84;70.34;20826.09;5069062;28;20228;-60
2023/08/02 04:18:19;;;;;;;3.42;2.03;;;16.70;99.90;;;-141.84;70.09;20834.22;5068240;28;20228;-61
2023/08/02 04:20:47;;;;;;;3.00;1.60;;;16.70;99.90;;;-141.84;70.68;20759.00;5051054;28;20719;-60
2023/08/02 04:23:16;;;;;;;4.82;1.75;;;16.70;99.90;;;-141.84;70.58;20783.41;5068440;28;20228;-59
2023/08/02 04:25:44;;;;;;;1.77;1.30;;;16.70;99.90;;;-141.84;70.30;20779.31;5068558;28;20227;-59
2023/08/02 04:28:12;;;;;;;3.42;1.50;;;16.70;99.90;;;-141.84;70.37;20793.56;5068369;28;20633;-59
2023/08/02 04:30:41;;;;;;;2.30;1.75;;;16.70;99.90;;;-141.84;70.78;20799.66;5061266;28;20679;-60
2023/08/02 04:33:10;;;;;;;2.00;1.70;;;16.70;99.90;;;-141.84;70.88;20775.25;5068881;28;20671;-59
2023/08/02 04:35:38;;;;;;;4.43;1.73;;;16.80;99.90;;;-141.84;69.50;20852.50;5068762;28;20243;-60
2023/08/02 04:38:08;;;;;;;2.80;1.83;;;16.80;99.90;;;-141.84;70.06;20797.63;5069158;28;20232;-60
2023/08/02 04:40:38;;;;;;;2.28;1.48;;;16.80;99.90;;;-141.84;71.13;20781.38;5049805;28;20602;-59
2023/08/02 04:43:07;;;;;;;3.40;1.67;;;16.80;99.90;;;-141.84;70.14;20811.84;5048803;28;20311;-60
2023/08/02 04:45:35;;;;;;;2.17;1.60;;;16.80;99.90;;;-141.84;69.90;20838.28;5058026;28;20246;-60
2023/08/02 04:48:05;;;;;;;4.30;1.58;;;16.90;99.90;;;-141.84;69.90;20838.28;5068737;28;20263;-60
2023/08/02 04:50:34;;;;;;;1.90;1.60;;;16.90;99.90;;;-141.84;70.64;20838.28;5060820;28;20253;-60
2023/08/02 04:53:02;;;;;;;3.42;1.50;;;17.00;99.90;;;-141.84;69.66;20838.28;5054726;28;20256;-60
2023/08/02 04:55:31;;;;;;;4.60;1.50;;;17.00;99.90;;;-141.84;69.73;20805.75;5048920;28;20253;-61
2023/08/02 04:57:59;;;;;;;3.20;1.60;;;17.00;99.90;;;-141.84;69.04;20878.94;5049172;28;20696;-62
2023/08/02 05:00:29;;;;;;;2.05;1.38;;;;;;;-141.84;69.00;20895.19;5048801;28;20716;-60
2023/08/02 05:02:57;;;;;;;2.83;1.90;;;17.20;99.90;;;-141.84;68.00;20927.72;5048739;28;20243;-61
2023/08/02 05:05:27;;;;;;;4.10;1.70;;;17.30;99.90;;;-141.84;68.14;20974.50;5059620;28;20231;-60
2023/08/02 05:07:55;;;;;;;4.03;1.75;;;17.50;99.90;;;-141.84;68.50;20970.41;5068455;28;20311;-60
2023/08/02 05:10:23;;;;;;;3.70;2.40;;;17.50;99.90;;;-141.84;67.87;20958.22;5068416;28;20764;-60
2023/08/02 05:12:51;;;;;;;2.90;1.70;;;17.50;99.90;;;-141.84;68.48;20935.88;5061476;28;20635;-60
2023/08/02 05:15:20;;;;;;;2.60;1.60;;;;;;;-141.84;67.74;20978.56;5068472;28;20236;-60
2023/08/02 05:17:48;;;;;;;2.83;1.80;;;17.50;99.90;;;-141.84;68.45;20992.78;5068894;28;20281;-59
2023/08/02 05:20:16;;;;;;;3.97;1.80;;;17.60;99.90;;;-141.84;68.94;20968.38;5049900;28;20232;-59
2023/08/02 05:22:46;;;;;;;3.38;1.80;;;17.60;99.90;;;-141.84;67.84;21047.69;5040994;28;20229;-60
2023/08/02 05:25:14;;;;;;;2.33;1.52;;;17.70;99.90;;;-141.84;66.89;21061.91;5044749;28;20205;-59
2023/08/02 05:27:42;;;;;;;5.13;1.58;;;17.80;99.90;;;-141.84;66.89;21025.31;5045470;28;20239;-59
2023/08/02 05:30:11;;;;;;;1.85;1.38;;;17.70;99.90;;;-141.84;67.20;21041.56;5045084;28;20328;-60
2023/08/02 05:32:40;;;;;;;3.63;1.80;;;17.90;99.90;;;-141.84;67.61;21013.13;5037304;28;20304;-60
2023/08/02 05:35:09;;;;;;;2.03;1.60;;;17.80;99.90;;;-141.84;68.47;21029.38;5052118;28;20264;-59
2023/08/02 05:37:37;;;;;;;2.40;1.63;;;17.80;99.90;;;-141.84;68.87;20988.72;5050248;28;20240;-59
2023/08/02 05:40:08;;;;;;;2.75;1.45;;;17.80;99.90;;;-141.84;68.75;20990.75;5045663;28;20288;-59
2023/08/02 05:42:36;;;;;;;3.33;1.85;;;17.70;99.90;;;-141.84;69.26;20958.22;5053729;28;20338;-59
2023/08/02 05:45:06;;;;;;;3.92;1.70;;;17.70;99.90;;;-141.84;67.43;21055.81;5064811;28;20232;-60
2023/08/02 05:47:35;;;;;;;3.35;1.80;;;17.90;99.90;;;-141.84;67.71;21094.44;5065089;28;20285;-60
2023/08/02 05:50:03;;;;;;;3.42;1.65;;;17.90;99.90;;;-141.84;67.79;21049.72;5044289;28;20696;-61
2023/08/02 05:52:32;;;;;;;4.65;1.90;;;18.00;99.90;;;-141.84;66.33;21163.56;5037328;28;20224;-60
2023/08/02 05:55:00;;;;;;;2.42;1.48;;;;;;;-141.84;64.06;21289.59;5045452;28;20292;-60
2023/08/02 05:57:30;;;;;;;3.90;1.55;;;18.50;99.90;;;-141.84;63.96;21328.25;5044368;28;20282;-59
2023/08/02 05:59:58;;;;;;;2.53;1.63;;;18.90;99.90;;;-141.84;64.47;21224.56;5044575;28;20272;-60
2023/08/02 06:02:26;;;;;;;2.67;1.70;;;18.90;99.90;;;-141.84;64.36;21277.41;5044347;28;20282;-58
2023/08/02 06:04:54;;;;;;;2.72;1.70;;;19.00;99.90;;;-141.84;63.73;21338.41;5049233;28;20731;-59
2023/08/02 06:07:23;;;;;;;3.10;1.80;;;19.10;99.90;;;-141.84;63.00;21336.38;5064182;28;20627;-60
2023/08/02 06:09:51;;;;;;;5.57;5.07;;;19.20;99.90;;;-141.84;63.97;21261.16;5065144;28;20254;-58
2023/08/02 06:12:19;;;;;;;3.38;1.95;;;19.10;99.90;;;-141.84;63.90;21255.03;5064155;28;20220;-59
2023/08/02 06:14:48;;;;;;;2.72;2.00;;;19.10;99.90;;;-141.84;63.42;21275.38;5057270;28;20791;-59
2023/08/02 06:17:17;;;;;;;2.95;2.05;;;19.20;99.90;;;-141.84;62.78;21391.28;5064284;28;20688;-60
2023/08/02 06:19:45;;;;;;;2.80;2.13;;;19.50;99.90;;;-141.84;62.01;21460.41;5050532;28;20225;-60
2023/08/02 06:22:13;;;;;;;2.25;1.70;;;19.80;99.90;;;-141.84;60.94;21564.09;5044200;28;20484;-59
2023/08/02 06:24:42;;;;;;;2.35;1.90;;;20.10;99.90;;;-141.84;60.17;21596.63;5037598;28;20283;-60
2023/08/02 06:27:10;;;;;;;3.08;2.00;;;20.20;99.90;;;-141.84;60.07;21555.97;5044154;28;20256;-60
2023/08/02 06:29:38;;;;;;;3.85;2.10;;;20.30;99.90;;;-141.84;59.89;21519.34;5044104;28;20239;-60
2023/08/02 06:32:08;;;;;;;2.15;1.70;;;20.20;99.90;;;-141.84;61.20;21470.56;5055163;28;20252;-61
2023/08/02 06:34:37;;;;;;;2.28;1.98;;;20.10;99.90;;;-141.84;61.73;21444.13;5039973;28;20271;-59
2023/08/02 06:37:05;;;;;;;3.65;2.10;;;20.00;99.90;;;-141.84;61.27;21472.59;5064186;28;20257;-60
2023/08/02 06:39:34;;;;;;;2.67;1.92;;;19.90;99.90;;;-141.84;60.47;21533.59;5063796;28;20444;-59
2023/08/02 06:42:02;;;;;;;3.65;2.03;;;20.10;99.90;;;-141.84;58.66;21669.81;5063738;28;20271;-59
2023/08/02 06:44:32;;;;;;;2.63;1.80;;;;;;;-141.84;57.79;21747.09;5050824;28;20576;-59
2023/08/02 06:47:00;;;;;;;3.90;2.13;;;20.70;99.90;;;-141.84;57.66;21765.38;5043128;28;20713;-59
2023/08/02 06:49:29;;;;;;;2.88;1.73;;;20.90;99.90;;;-141.84;58.22;21757.25;5059090;28;20239;-60
2023/08/02 06:51:58;;;;;;;2.33;2.00;;;21.00;99.90;;;-141.84;57.77;21810.13;5063946;28;20209;-60
2023/08/02 06:54:26;;;;;;;3.35;1.90;;;21.20;99.90;;;-141.84;55.99;21867.06;5063505;28;20256;-60
2023/08/02 06:56:55;;;;;;;2.65;1.98;;;21.30;99.90;;;-141.84;56.83;21816.22;5059547;28;20800;-60
2023/08/02 06:59:23;;;;;;;2.53;1.90;;;21.30;99.90;;;-141.84;56.30;21777.59;5063528;28;20266;-59
2023/08/02 07:01:54;;;;;;;2.47;1.92;;;;;;;-141.84;57.30;21799.97;5063424;28;20242;-60
2023/08/02 07:04:22;;;;;;;2.33;1.80;;;21.30;99.90;;;-141.84;57.22;21850.78;5063194;28;20311;-59
2023/08/02 07:06:51;;;;;;;3.13;2.00;;;21.40;99.90;;;-141.84;56.47;21903.66;5056115;28;20262;-59
2023/08/02 07:09:20;;;;;;;3.28;1.83;;;21.40;99.90;;;-141.84;55.53;21863.00;5063496;28;20228;-59
2023/08/02 07:11:48;;;;;;;2.20;1.75;;;21.60;99.90;;;-141.84;55.94;21889.44;5063122;28;20659;-59
2023/08/02 07:14:16;;;;;;;2.92;2.08;;;21.50;99.90;;;-141.84;57.12;21871.13;5063073;28;20362;-59
2023/08/02 07:16:45;;;;;;;2.88;1.90;;;21.50;99.90;;;-141.84;57.44;21844.69;5055684;28;20267;-60
2023/08/02 07:19:13;;;;;;;3.47;2.00;;;21.50;99.90;;;-141.84;56.67;21879.25;5053788;28;20215;-60
2023/08/02 07:21:41;;;;;;;3.42;1.83;;;21.50;99.90;;;-141.84;56.42;21842.66;5043867;28;20204;-59
2023/08/02 07:24:11;;;;;;;3.85;2.30;;;21.40;99.90;;;-141.84;56.02;21858.94;5043407;28;20376;-59
2023/08/02 07:26:39;;;;;;;2.35;1.60;;;21.40;99.90;;;-141.84;56.72;21814.19;5035948;28;20264;-60
2023/08/02 07:29:07;;;;;;;2.95;1.85;;;21.10;99.90;;;-141.84;57.95;21696.25;5053885;28;20252;-60
2023/08/02 07:31:36;;;;;;;2.47;1.80;;;21.00;99.90;;;-141.84;57.79;21712.53;5043198;28;20229;-60
2023/08/02 07:34:05;;;;;;;2.97;1.77;;;21.00;99.90;;;-141.84;56.75;21789.78;5043148;28;20301;-60
2023/08/02 07:36:33;;;;;;;3.75;1.90;;;21.10;99.90;;;-141.84;56.08;21834.53;5055067;28;20329;-60
2023/08/02 07:39:01;;;;;;;2.80;1.83;;;21.10;99.90;;;-141.84;55.98;21802.00;5062850;28;20267;-59
2023/08/02 07:41:31;;;;;;;2.00;1.70;;;21.10;99.90;;;-141.84;56.39;21797.94;5058182;28;20251;-59
2023/08/02 07:43:59;;;;;;;1.90;1.70;;;21.20;99.90;;;-141.84;56.46;21832.50;5062902;28;20307;-60
2023/08/02 07:46:27;;;;;;;3.97;2.05;;;21.20;99.90;;;-141.84;55.24;21893.50;5062376;28;20228;-60
2023/08/02 07:48:56;;;;;;;2.30;1.70;;;21.50;99.90;;;-141.84;56.60;21867.06;5059839;28;20304;-59
2023/08/02 07:51:24;;;;;;;3.65;2.10;;;21.50;99.90;;;-141.84;56.77;21905.69;5062317;28;20263;-60
2023/08/02 07:53:52;;;;;;;2.25;1.88;;;21.50;99.90;;;-141.84;54.71;21907.72;5062303;28;20232;-60
2023/08/02 07:56:21;;;;;;;2.78;1.70;;;21.70;99.90;;;-141.84;54.37;21987.03;5062858;28;20253;-59
2023/08/02 07:58:50;;;;;;;4.22;2.00;;;21.90;99.90;;;-141.84;53.21;22041.94;5054558;28;20232;-60
2023/08/02 08:01:18;;;;;;;2.20;1.80;;;22.10;99.90;;;-141.84;54.57;22096.84;5062716;28;20258;-60
2023/08/02 08:03:47;;;;;;;2.28;2.00;;;22.10;99.90;;;-141.84;53.46;22102.94;5062792;28;20249;-59
2023/08/02 08:06:19;;;;;;;3.00;1.70;;;22.30;99.90;;;-141.84;53.20;22157.84;5062039;28;20657;-60
2023/08/02 08:08:49;;;;;;;3.42;2.03;;;22.30;99.90;;;-141.84;52.99;22133.44;5054410;28;21247;-60
2023/08/02 08:11:17;;;;;;;2.20;1.90;;;22.30;99.90;;;-141.84;52.25;22212.75;5062660;28;20744;-60
2023/08/02 08:13:48;;;;;;;2.85;1.80;;;22.40;99.90;;;-141.84;52.22;22147.69;5062632;28;20231;-59
2023/08/02 08:16:17;;;;;;;3.03;2.00;;;22.50;99.90;;;-141.84;52.33;22202.59;5060909;28;20201;-60
2023/08/02 08:18:45;;;;;;;3.45;2.00;;;22.40;99.90;;;-141.84;51.72;22247.34;5054176;28;20201;-60
2023/08/02 08:21:14;;;;;;;2.40;2.03;;;22.60;99.90;;;-141.84;51.68;22241.22;5060935;28;20228;-60
2023/08/02 08:23:42;;;;;;;2.65;2.20;;;22.50;99.90;;;-141.84;52.16;22182.25;5061938;28;20711;-60
2023/08/02 08:26:11;;;;;;;4.40;2.20;;;22.60;99.90;;;-141.84;51.95;22202.59;5048905;28;20716;-59
2023/08/02 08:28:40;;;;;;;3.25;2.13;;;22.70;99.90;;;-141.84;50.79;22283.94;5034903;28;20229;-60
2023/08/02 08:31:08;;;;;;;2.60;2.20;;;22.80;99.90;;;-141.84;50.89;22269.69;5042534;28;20653;-60
2023/08/02 08:33:37;;;;;;;2.60;2.30;;;22.80;99.90;;;-141.84;52.00;22269.69;5042895;28;20241;-59
2023/08/02 08:36:13;;;;;;;4.07;2.40;;;22.80;99.90;;;-141.84;50.92;22306.31;5057699;28;20309;-60
2023/08/02 08:38:41;;;;;;;5.10;2.30;;;22.80;99.90;;;-141.84;51.97;22204.63;5035353;28;20604;-60
2023/08/02 08:41:15;;;;;;;3.20;2.20;;;22.70;99.90;;;-141.84;51.36;22255.47;5046776;28;20704;-59
2023/08/02 08:43:44;;;;;;;3.35;2.10;;;22.70;99.90;;;-141.84;52.02;22218.84;5062220;28;20690;-61
2023/08/02 08:46:13;;;;;;;4.30;2.42;;;22.70;99.90;;;-141.84;52.54;22139.56;5060816;28;20227;-59
2023/08/02 08:48:43;;;;;;;3.88;2.33;;;22.50;99.90;;;-141.84;52.87;22102.94;5051921;28;20197;-60
2023/08/02 08:51:13;;;;;;;3.22;2.50;;;22.50;99.90;;;-141.84;52.58;22131.41;5060181;28;20325;-60
2023/08/02 08:53:45;;;;;;;3.78;2.20;;;22.50;99.90;;;-141.84;53.62;22078.53;5060597;28;20237;-59
2023/08/02 08:56:15;;;;;;;2.80;2.22;;;22.40;99.90;;;-141.84;52.93;22098.88;5062360;28;20263;-59
2023/08/02 08:58:43;;;;;;;3.22;2.30;;;22.40;99.90;;;-141.84;53.02;22084.66;5054748;28;20308;-61
2023/08/02 09:01:13;;;;;;;3.03;2.22;;;22.40;99.90;;;-141.84;52.42;22147.69;5065887;28;20282;-60
2023/08/02 09:03:44;;;;;;;2.92;2.00;;;22.50;99.90;;;-141.84;52.36;22155.81;5066272;28;20219;-59
2023/08/02 09:06:15;;;;;;;4.15;2.20;;;22.50;99.90;;;-141.84;52.74;22161.91;5065410;28;20654;-59
2023/08/02 09:08:47;;;;;;;2.55;2.08;;;22.60;99.90;;;-141.84;52.11;22198.53;5056911;28;20772;-59
2023/08/02 09:11:16;;;;;;;2.35;2.00;;;22.70;99.90;;;-141.84;51.59;22241.22;5064906;28;20274;-59
2023/08/02 09:13:44;;;;;;;3.42;2.50;;;22.80;99.90;;;-141.84;51.21;22296.13;5064881;28;20743;-60
2023/08/02 09:16:16;;;;;;;2.45;2.00;;;23.00;99.90;;;-141.84;49.91;22397.81;5065406;28;20239;-60
2023/08/02 09:18:48;;;;;;;5.00;2.58;;;23.10;99.90;;;-141.84;49.71;22452.72;5052242;28;20213;-60
2023/08/02 09:21:22;;;;;;;3.05;2.42;;;23.30;99.90;;;-141.84;49.27;22440.53;5060777;28;20708;-60
2023/08/02 09:24:00;;;;;;;3.67;2.60;;;23.40;99.90;;;-141.84;49.04;22517.81;5064450;28;20227;-60
2023/08/02 09:26:28;;;;;;;3.38;2.50;;;23.40;99.90;;;-141.84;48.79;22442.56;5063216;28;20321;-60
2023/08/02 09:29:00;;;;;;;5.32;2.80;;;23.40;99.90;;;-141.84;49.05;22424.25;5063102;28;20779;-60
2023/08/02 09:31:30;;;;;;;4.78;2.72;;;23.40;99.90;;;-141.84;48.74;22558.50;5065079;28;20572;-60
2023/08/02 09:34:00;;;;;;;4.70;2.70;;;23.70;99.90;;;-141.84;48.90;22607.31;5059880;28;20244;-60
2023/08/02 09:36:29;;;;;;;4.40;2.53;;;23.90;99.90;;;-141.84;48.76;22603.22;5063141;28;20228;-59
2023/08/02 09:39:03;;;;;;;3.15;2.22;;;24.00;99.90;;;-141.84;48.55;22621.53;5064890;28;20271;-59
2023/08/02 09:41:32;;;;;;;2.33;2.10;;;24.00;99.90;;;-141.84;48.38;22566.63;5064785;28;20221;-61
2023/08/02 09:44:03;;;;;;;2.95;2.50;;;23.90;99.90;;;-141.84;48.03;22578.81;5064925;28;20308;-59
2023/08/02 09:46:34;;;;;;;3.30;2.75;;;23.80;99.90;;;-141.84;48.09;22521.88;5058187;28;20252;-60
2023/08/02 09:49:19;;;;;;;3.30;2.28;;;23.80;99.90;;;-141.84;48.38;22572.72;5058382;28;20208;-61
2023/08/02 09:51:47;;;;;;;4.22;2.80;;;23.80;99.90;;;-141.84;48.69;22627.63;5048228;28;20225;-61
2023/08/02 09:54:16;;;;;;;3.13;2.47;;;24.00;99.90;;;-141.84;46.99;22704.94;5056544;28;20274;-60
2023/08/02 09:56:45;;;;;;;2.88;2.40;;;24.20;99.90;;;-141.84;47.53;22757.81;5057456;28;20237;-61
2023/08/02 09:59:14;;;;;;;2.78;2.30;;;24.40;99.90;;;-141.84;46.67;22800.50;5064153;28;20311;-59
2023/08/02 10:01:46;;;;;;;3.63;2.78;;;24.60;99.90;;;-141.84;46.93;22778.16;5064564;28;20308;-60
2023/08/02 10:04:17;;;;;;;3.53;2.50;;;24.40;99.90;;;-141.84;48.01;22607.31;5064478;28;20331;-59
2023/08/02 10:06:51;;;;;;;3.40;2.00;;;24.10;99.90;;;-141.84;48.41;22556.47;5056587;28;20270;-60
2023/08/02 10:09:24;;;;;;;3.25;2.20;;;23.90;99.90;;;-141.84;48.92;22613.41;5064743;28;20224;-59
2023/08/02 10:11:58;;;;;;;3.65;2.60;;;24.00;99.90;;;-141.84;48.43;22621.53;5063593;28;20279;-59
2023/08/02 10:14:27;;;;;;;4.45;2.45;;;24.10;99.90;;;-141.84;47.88;22694.75;5064435;28;20711;-59
2023/08/02 10:17:00;;;;;;;3.42;2.42;;;24.40;99.90;;;-141.84;47.60;22753.75;5061403;28;20258;-59